createdAt,value
2023-03-26T00:01:49.951Z,9.50
2023-03-26T00:04:38.326Z,9.50
2023-03-26T00:07:27.420Z,9.60
2023-03-26T00:10:15.456Z,9.70
2023-03-26T00:13:02.608Z,9.70
2023-03-26T00:15:50.047Z,9.80
2023-03-26T00:18:37.740Z,9.90
2023-03-26T00:21:29.405Z,10.00
2023-03-26T00:24:17.345Z,10.00
2023-03-26T00:27:05.644Z,10.10
2023-03-26T00:29:54.629Z,10.10
2023-03-26T00:32:42.108Z,10.10
2023-03-26T00:35:30.561Z,10.20
2023-03-26T00:38:17.962Z,10.20
2023-03-26T00:41:06.556Z,10.30
2023-03-26T00:43:57.306Z,10.30
2023-03-26T00:46:44.927Z,10.30
2023-03-26T00:49:32.476Z,10.40
2023-03-26T00:52:22.229Z,10.30
2023-03-26T00:55:10.119Z,10.20
2023-03-26T00:57:57.506Z,10.20
2023-03-26T01:00:50.856Z,10.10
2023-03-26T01:03:39.090Z,9.90
2023-03-26T01:06:36.487Z,9.80
2023-03-26T01:09:27.192Z,9.80
2023-03-26T01:12:17.035Z,9.90
2023-03-26T01:15:05.013Z,9.90
2023-03-26T01:17:54.600Z,9.90
2023-03-26T01:20:46.330Z,10.00
2023-03-26T01:23:39.236Z,10.00
2023-03-26T01:26:31.801Z,10.10
2023-03-26T01:29:40.316Z,10.10
2023-03-26T01:32:55.731Z,10.10
2023-03-26T01:35:55.386Z,10.00
2023-03-26T01:39:00.861Z,10.00
2023-03-26T01:41:57.570Z,10.00
2023-03-26T01:44:50.649Z,9.90
2023-03-26T01:47:39.851Z,9.90
2023-03-26T01:50:27.433Z,9.80
2023-03-26T01:53:15.519Z,9.80
2023-03-26T01:56:29.384Z,9.90
2023-03-26T01:59:21.987Z,9.90
2023-03-26T02:02:14.812Z,10.00
2023-03-26T02:05:20.039Z,9.90
2023-03-26T02:08:11.728Z,9.90
2023-03-26T02:11:04.245Z,9.90
2023-03-26T02:13:52.734Z,9.90
2023-03-26T02:16:40.271Z,9.80
2023-03-26T02:19:28.001Z,9.70
2023-03-26T02:22:15.783Z,9.80
2023-03-26T02:25:03.551Z,9.80
2023-03-26T02:27:52.673Z,9.70
2023-03-26T02:30:39.955Z,9.70
2023-03-26T02:33:27.294Z,9.60
2023-03-26T02:36:16.224Z,9.50
2023-03-26T02:39:04.467Z,9.40
2023-03-26T02:41:51.786Z,9.40
2023-03-26T02:44:40.165Z,9.50
2023-03-26T02:47:27.674Z,9.60
2023-03-26T02:50:16.316Z,9.60
2023-03-26T02:53:04.512Z,9.60
2023-03-26T02:55:52.060Z,9.60
2023-03-26T02:58:39.464Z,9.70
2023-03-26T03:01:26.601Z,9.70
2023-03-26T03:04:14.507Z,9.70
2023-03-26T03:07:01.957Z,9.70
2023-03-26T03:09:50.618Z,9.60
2023-03-26T03:12:38.102Z,9.70
2023-03-26T03:15:26.025Z,9.60
2023-03-26T03:18:13.244Z,9.70
2023-03-26T03:21:01.068Z,9.60
2023-03-26T03:23:48.941Z,9.60
2023-03-26T03:26:37.696Z,9.60
2023-03-26T03:29:24.904Z,9.70
2023-03-26T03:32:12.559Z,9.70
2023-03-26T03:34:59.813Z,9.70
2023-03-26T03:37:47.325Z,9.80
2023-03-26T03:40:34.829Z,9.80
2023-03-26T03:43:22.292Z,9.70
2023-03-26T03:46:10.015Z,9.80
2023-03-26T03:48:57.297Z,9.80
2023-03-26T03:51:44.703Z,9.80
2023-03-26T03:54:31.904Z,9.90
2023-03-26T03:57:21.318Z,9.90
2023-03-26T04:00:11.845Z,9.80
2023-03-26T04:02:59.098Z,9.80
2023-03-26T04:05:52.108Z,9.70
2023-03-26T04:08:40.331Z,9.70
2023-03-26T04:11:27.909Z,9.70
2023-03-26T04:14:15.340Z,9.70
2023-03-26T04:17:04.113Z,9.80
2023-03-26T04:19:55.296Z,9.80
2023-03-26T04:22:46.570Z,9.90
2023-03-26T04:25:36.262Z,9.90
2023-03-26T04:28:30.465Z,10.00
2023-03-26T04:31:22.632Z,10.00
2023-03-26T04:34:14.100Z,10.00
2023-03-26T04:37:03.327Z,9.90
2023-03-26T04:39:50.666Z,9.90
2023-03-26T04:42:40.831Z,9.90
2023-03-26T04:45:29.537Z,9.90
2023-03-26T04:48:16.839Z,9.80
2023-03-26T04:51:06.063Z,9.80
2023-03-26T04:53:57.709Z,9.80
2023-03-26T04:56:57.446Z,9.80
2023-03-26T04:59:44.916Z,9.80
2023-03-26T05:02:32.599Z,9.90
2023-03-26T05:05:20.006Z,9.90
2023-03-26T05:08:07.723Z,9.90
2023-03-26T05:10:56.437Z,9.90
2023-03-26T05:13:44.176Z,9.90
2023-03-26T05:16:32.333Z,9.80
2023-03-26T05:19:20.084Z,9.80
2023-03-26T05:22:07.542Z,9.90
2023-03-26T05:24:54.985Z,9.80
2023-03-26T05:27:42.954Z,9.80
2023-03-26T05:30:30.357Z,9.70
2023-03-26T05:33:17.699Z,9.70
2023-03-26T05:36:09.180Z,9.70
2023-03-26T05:38:57.281Z,9.70
2023-03-26T05:41:45.510Z,9.70
2023-03-26T05:44:33.100Z,9.70
2023-03-26T05:47:20.617Z,9.60
2023-03-26T05:50:09.091Z,9.60
2023-03-26T05:52:56.193Z,9.60
2023-03-26T05:55:53.457Z,9.40
2023-03-26T05:58:42.121Z,9.40
2023-03-26T06:01:29.455Z,9.50
2023-03-26T06:04:18.094Z,9.60
2023-03-26T06:07:07.336Z,9.80
2023-03-26T06:09:54.626Z,9.90
2023-03-26T06:12:41.934Z,9.80
2023-03-26T06:15:29.257Z,9.90
2023-03-26T06:18:17.665Z,10.10
2023-03-26T06:21:06.393Z,10.20
2023-03-26T06:23:53.746Z,10.20
2023-03-26T06:26:41.405Z,10.30
2023-03-26T06:29:28.843Z,10.40
2023-03-26T06:32:20.093Z,10.30
2023-03-26T06:35:06.182Z,10.40
2023-03-26T06:37:53.446Z,10.20
2023-03-26T06:40:41.133Z,10.20
2023-03-26T06:43:28.695Z,10.30
2023-03-26T06:46:16.837Z,10.30
2023-03-26T06:49:04.111Z,10.30
2023-03-26T06:51:51.345Z,10.30
2023-03-26T06:54:38.962Z,10.40
2023-03-26T06:57:26.672Z,10.40
2023-03-26T07:00:15.401Z,10.50
2023-03-26T07:03:05.164Z,10.60
2023-03-26T07:05:52.654Z,10.70
2023-03-26T07:08:40.221Z,10.70
2023-03-26T07:11:27.558Z,10.80
2023-03-26T07:14:15.646Z,10.80
2023-03-26T07:17:03.234Z,10.70
2023-03-26T07:19:52.309Z,10.80
2023-03-26T07:22:41.472Z,10.80
2023-03-26T07:25:28.846Z,10.90
2023-03-26T07:28:30.616Z,10.80
2023-03-26T07:31:27.174Z,10.80
2023-03-26T07:34:33.313Z,10.70
2023-03-26T07:37:23.913Z,10.50
2023-03-26T07:40:38.078Z,10.30
2023-03-26T07:43:36.962Z,10.20
2023-03-26T07:46:27.241Z,10.20
2023-03-26T07:49:15.217Z,10.20
2023-03-26T07:52:02.649Z,10.10
2023-03-26T07:54:50.389Z,10.20
2023-03-26T07:57:40.775Z,10.30
2023-03-26T08:00:31.471Z,10.40
2023-03-26T08:03:39.821Z,10.40
2023-03-26T08:06:38.606Z,10.50
2023-03-26T08:09:34.905Z,10.50
2023-03-26T08:12:37.165Z,10.50
2023-03-26T08:15:29.240Z,10.60
2023-03-26T08:18:49.240Z,10.80
2023-03-26T08:21:42.567Z,10.80
2023-03-26T08:24:36.437Z,10.80
2023-03-26T08:27:54.270Z,10.80
2023-03-26T08:30:41.599Z,10.90
2023-03-26T08:33:29.884Z,10.90
2023-03-26T08:36:17.430Z,11.00
2023-03-26T08:39:05.724Z,11.00
2023-03-26T08:42:01.766Z,11.00
2023-03-26T08:45:17.273Z,11.00
2023-03-26T08:48:24.475Z,11.10
2023-03-26T08:51:15.188Z,11.20
2023-03-26T08:54:28.303Z,11.20
2023-03-26T08:57:27.724Z,10.80
2023-03-26T09:00:26.115Z,10.60
2023-03-26T09:03:22.198Z,10.70
2023-03-26T09:06:41.212Z,10.90
2023-03-26T09:09:49.934Z,11.00
2023-03-26T09:12:43.266Z,10.70
2023-03-26T09:15:57.824Z,10.50
2023-03-26T09:18:54.387Z,10.40
2023-03-26T09:22:00.350Z,10.40
2023-03-26T09:24:59.778Z,10.40
2023-03-26T09:28:18.508Z,10.30
2023-03-26T09:31:31.703Z,10.40
2023-03-26T09:34:54.056Z,10.30
2023-03-26T09:37:58.011Z,10.20
2023-03-26T09:40:52.850Z,9.90
2023-03-26T09:43:52.005Z,9.80
2023-03-26T09:46:51.263Z,9.70
2023-03-26T09:49:52.941Z,9.90
2023-03-26T09:53:12.284Z,9.90
2023-03-26T09:56:09.169Z,10.00
2023-03-26T09:59:30.772Z,9.90
2023-03-26T10:02:45.335Z,10.00
2023-03-26T10:05:44.577Z,10.00
2023-03-26T10:08:47.454Z,10.20
2023-03-26T10:12:09.220Z,10.10
2023-03-26T10:15:08.966Z,10.20
2023-03-26T10:18:02.104Z,10.20
2023-03-26T10:21:14.613Z,10.40
2023-03-26T10:24:17.568Z,10.60
2023-03-26T10:27:28.255Z,10.80
2023-03-26T10:30:27.529Z,10.70
2023-03-26T10:33:43.509Z,10.60
2023-03-26T10:36:46.364Z,10.80
2023-03-26T10:39:59.603Z,11.00
2023-03-26T10:43:05.617Z,10.90
2023-03-26T10:46:25.038Z,10.70
2023-03-26T10:49:24.016Z,10.70
2023-03-26T10:52:15.767Z,10.60
2023-03-26T10:55:17.877Z,10.70
2023-03-26T10:58:08.447Z,10.80
2023-03-26T11:01:03.448Z,10.90
2023-03-26T11:03:55.638Z,11.10
2023-03-26T11:06:57.410Z,11.20
2023-03-26T11:10:02.754Z,11.40
2023-03-26T11:13:14.745Z,11.50
2023-03-26T11:16:08.011Z,11.80
2023-03-26T11:18:58.179Z,12.00
2023-03-26T11:21:59.956Z,12.30
2023-03-26T11:24:59.359Z,12.60
2023-03-26T11:27:52.832Z,12.50
2023-03-26T11:31:02.736Z,12.10
2023-03-26T11:33:54.831Z,12.10
2023-03-26T11:36:45.109Z,12.50
2023-03-26T11:39:35.868Z,12.40
2023-03-26T11:42:24.660Z,12.30
2023-03-26T11:45:21.691Z,12.10
2023-03-26T11:48:21.618Z,12.20
2023-03-26T11:51:11.670Z,12.30
2023-03-26T11:53:58.978Z,12.50
2023-03-26T11:57:05.089Z,12.70
2023-03-26T11:59:57.721Z,12.90
2023-03-26T12:02:43.325Z,12.90
2023-03-26T12:05:32.296Z,12.90
2023-03-26T12:08:25.552Z,13.10
2023-03-26T12:11:13.538Z,13.30
2023-03-26T12:14:02.836Z,13.50
2023-03-26T12:17:05.829Z,13.70
2023-03-26T12:19:53.113Z,13.90
2023-03-26T12:22:43.842Z,13.60
2023-03-26T12:25:35.313Z,13.70
2023-03-26T12:28:23.371Z,13.90
2023-03-26T12:31:14.718Z,14.30
2023-03-26T12:34:17.263Z,14.60
2023-03-26T12:37:07.166Z,14.90
2023-03-26T12:40:09.321Z,15.20
2023-03-26T12:44:47.212Z,15.10
2023-03-26T12:45:44.114Z,14.70
2023-03-26T12:48:34.077Z,14.40
2023-03-26T12:51:27.463Z,14.20
2023-03-26T12:54:48.228Z,14.20
2023-03-26T12:57:41.414Z,14.40
2023-03-26T13:00:37.793Z,14.30
2023-03-26T13:03:29.466Z,14.00
2023-03-26T13:06:27.374Z,14.00
2023-03-26T13:09:20.775Z,13.70
2023-03-26T13:12:29.372Z,13.50
2023-03-26T13:15:22.593Z,13.80
2023-03-26T13:18:21.340Z,13.90
2023-03-26T13:21:11.789Z,14.20
2023-03-26T13:24:20.552Z,14.70
2023-03-26T13:27:22.852Z,14.80
2023-03-26T13:30:31.514Z,14.70
2023-03-26T13:33:30.908Z,14.70
2023-03-26T13:36:40.724Z,14.20
2023-03-26T13:39:51.767Z,14.10
2023-03-26T13:42:42.111Z,14.20
2023-03-26T13:45:55.280Z,14.00
2023-03-26T13:49:03.842Z,14.00
2023-03-26T13:51:54.852Z,14.00
2023-03-26T13:54:56.917Z,13.80
2023-03-26T13:57:50.365Z,13.30
2023-03-26T14:00:43.424Z,12.90
2023-03-26T14:03:55.088Z,12.30
2023-03-26T14:07:08.876Z,12.30
2023-03-26T14:10:02.093Z,12.60
2023-03-26T14:13:18.252Z,12.80
2023-03-26T14:16:17.970Z,12.90
2023-03-26T14:19:43.472Z,13.20
2023-03-26T14:22:48.291Z,13.20
2023-03-26T14:25:44.754Z,13.20
2023-03-26T14:28:57.730Z,13.40
2023-03-26T14:31:56.662Z,13.50
2023-03-26T14:34:56.048Z,13.40
2023-03-26T14:37:55.337Z,13.40
2023-03-26T14:40:54.776Z,13.30
2023-03-26T14:43:53.267Z,13.10
2023-03-26T14:46:44.764Z,13.20
2023-03-26T14:50:09.394Z,13.40
2023-03-26T14:53:00.851Z,13.30
2023-03-26T14:55:52.051Z,13.30
2023-03-26T14:58:57.764Z,13.40
2023-03-26T15:02:00.251Z,13.30
2023-03-26T15:05:10.314Z,13.30
2023-03-26T15:08:08.711Z,13.40
2023-03-26T15:11:10.531Z,13.40
2023-03-26T15:14:15.595Z,13.30
2023-03-26T15:17:10.326Z,13.10
2023-03-26T15:20:17.204Z,13.10
2023-03-26T15:23:10.275Z,13.20
2023-03-26T15:26:17.459Z,13.20
2023-03-26T15:29:25.592Z,13.30
2023-03-26T15:32:28.805Z,13.30
2023-03-26T15:35:37.865Z,13.30
2023-03-26T15:38:59.969Z,13.30
2023-03-26T15:42:17.709Z,13.20
2023-03-26T15:45:39.644Z,12.20
2023-03-26T15:52:25.740Z,9.70
2023-03-26T15:55:21.576Z,9.50
2023-03-26T15:58:20.497Z,9.30
2023-03-26T16:01:34.624Z,9.20
2023-03-26T16:04:28.994Z,9.00
2023-03-26T16:07:41.354Z,9.00
2023-03-26T16:10:40.893Z,9.00
2023-03-26T16:13:46.400Z,9.10
2023-03-26T16:16:52.011Z,9.20
2023-03-26T16:19:58.974Z,9.30
2023-03-26T16:22:49.199Z,9.30
2023-03-26T16:26:00.556Z,9.40
2023-03-26T16:28:52.916Z,9.60
2023-03-26T16:31:54.931Z,9.90
2023-03-26T16:34:53.953Z,10.10
2023-03-26T16:37:50.480Z,10.20
2023-03-26T16:41:00.280Z,10.20
2023-03-26T16:43:54.110Z,10.10
2023-03-26T16:46:50.649Z,10.10
2023-03-26T16:50:08.968Z,10.00
2023-03-26T16:53:17.430Z,9.80
2023-03-26T16:56:17.131Z,9.80
2023-03-26T16:59:19.352Z,9.90
2023-03-26T17:02:31.282Z,9.90
2023-03-26T17:05:44.365Z,9.90
2023-03-26T17:08:37.994Z,9.90
2023-03-26T17:11:31.588Z,10.00
2023-03-26T17:14:22.061Z,10.20
2023-03-26T17:17:27.361Z,10.20
2023-03-26T17:20:20.291Z,10.20
2023-03-26T17:23:31.865Z,10.30
2023-03-26T17:26:46.381Z,10.40
2023-03-26T17:30:10.222Z,10.40
2023-03-26T17:33:01.022Z,10.40
2023-03-26T17:35:51.181Z,10.50
2023-03-26T17:38:45.209Z,10.50
2023-03-26T17:41:53.287Z,10.50
2023-03-26T17:45:01.954Z,10.60
2023-03-26T17:47:52.584Z,10.40
2023-03-26T17:50:55.325Z,10.50
2023-03-26T17:53:43.578Z,10.60
2023-03-26T17:56:32.732Z,10.40
2023-03-26T17:59:24.647Z,10.40
2023-03-26T18:02:18.342Z,10.30
2023-03-26T18:05:11.645Z,10.10
2023-03-26T18:08:08.877Z,10.00
2023-03-26T18:11:02.530Z,9.90
2023-03-26T18:14:12.344Z,9.80
2023-03-26T18:17:04.068Z,9.70
2023-03-26T18:19:53.461Z,9.60
2023-03-26T18:22:42.786Z,9.70
2023-03-26T18:25:34.069Z,9.80
2023-03-26T18:28:36.356Z,9.80
2023-03-26T18:31:28.156Z,9.90
2023-03-26T18:34:20.495Z,9.90
2023-03-26T18:37:22.361Z,10.00
2023-03-26T18:40:12.891Z,9.90
2023-03-26T18:43:03.852Z,9.90
2023-03-26T18:45:53.778Z,10.00
2023-03-26T18:48:41.424Z,10.10
2023-03-26T18:51:31.309Z,10.20
2023-03-26T18:54:23.199Z,10.20
2023-03-26T18:58:02.313Z,10.20
2023-03-26T19:01:03.687Z,10.10
2023-03-26T19:03:51.554Z,10.10
2023-03-26T19:06:52.090Z,10.00
2023-03-26T19:09:41.795Z,10.00
2023-03-26T19:12:35.216Z,10.00
2023-03-26T19:15:24.599Z,9.90
2023-03-26T19:18:15.601Z,9.80
2023-03-26T19:21:04.804Z,9.80
2023-03-26T19:23:55.405Z,9.80
2023-03-26T19:26:42.462Z,9.80
2023-03-26T19:29:32.603Z,9.70
2023-03-26T19:32:33.668Z,9.70
2023-03-26T19:35:24.151Z,9.70
2023-03-26T19:38:29.660Z,9.60
2023-03-26T19:41:28.994Z,9.50
2023-03-26T19:44:26.662Z,9.50
2023-03-26T19:47:31.942Z,9.60
2023-03-26T19:50:29.188Z,9.50
2023-03-26T19:53:24.510Z,9.40
2023-03-26T19:59:39.781Z,9.60
2023-03-26T20:05:52.683Z,9.60
2023-03-26T20:08:53.668Z,9.60
2023-03-26T20:19:42.062Z,9.80
2023-03-26T20:22:33.017Z,9.80
2023-03-26T20:25:23.611Z,9.90
2023-03-26T20:28:11.107Z,9.90
2023-03-26T20:30:58.840Z,9.80
2023-03-26T20:33:50.041Z,9.70
2023-03-26T20:36:38.383Z,9.70
2023-03-26T20:39:27.046Z,9.70
2023-03-26T20:42:15.384Z,9.50
2023-03-26T20:45:05.628Z,9.50
2023-03-26T20:47:54.060Z,9.50
2023-03-26T20:50:50.272Z,9.50
2023-03-26T20:53:32.037Z,9.30
2023-03-26T20:56:21.994Z,9.30
2023-03-26T20:59:11.847Z,9.20
2023-03-26T21:02:00.333Z,9.00
2023-03-26T21:04:48.119Z,8.90
2023-03-26T21:07:35.661Z,8.80
2023-03-26T21:10:25.051Z,8.70
2023-03-26T21:13:21.348Z,8.70
2023-03-26T21:16:10.632Z,8.80
2023-03-26T21:18:58.956Z,8.70
2023-03-26T21:21:58.978Z,8.60
2023-03-26T21:25:08.644Z,8.50
2023-03-26T21:28:01.798Z,8.50
2023-03-26T21:30:51.147Z,8.30
2023-03-26T21:33:38.495Z,8.30
2023-03-26T21:36:28.100Z,8.30
2023-03-26T21:39:16.422Z,8.30
2023-03-26T21:42:05.762Z,8.30
2023-03-26T21:44:53.603Z,8.20
2023-03-26T21:47:42.085Z,8.30
2023-03-26T21:50:29.761Z,8.30
2023-03-26T21:53:17.614Z,8.30
2023-03-26T21:56:26.302Z,8.20
2023-03-26T21:59:33.420Z,8.20
2023-03-26T22:02:33.980Z,8.10
2023-03-26T22:05:24.641Z,8.00
2023-03-26T22:08:20.679Z,8.00
2023-03-26T22:11:08.913Z,8.00
2023-03-26T22:13:56.832Z,8.00
2023-03-26T22:16:44.336Z,8.00
2023-03-26T22:19:31.842Z,8.00
2023-03-26T22:22:19.060Z,8.10
2023-03-26T22:25:07.098Z,8.00
2023-03-26T22:27:54.489Z,8.00
2023-03-26T22:30:41.835Z,8.00
2023-03-26T22:33:29.484Z,8.10
2023-03-26T22:36:23.107Z,8.00
2023-03-26T22:39:05.676Z,8.10
2023-03-26T22:41:52.933Z,8.00
2023-03-26T22:44:40.855Z,7.90
2023-03-26T22:47:30.142Z,7.80
2023-03-26T22:50:17.830Z,7.70
2023-03-26T22:53:05.113Z,7.60
2023-03-26T22:55:52.748Z,7.60
2023-03-26T22:58:40.176Z,7.60
2023-03-26T23:01:27.746Z,7.50
2023-03-26T23:04:31.502Z,7.50
2023-03-26T23:07:07.932Z,7.40
2023-03-26T23:09:55.711Z,7.50
2023-03-26T23:12:43.182Z,7.40
2023-03-26T23:15:30.462Z,7.30
2023-03-26T23:18:19.178Z,7.30
2023-03-26T23:21:11.908Z,7.40
2023-03-26T23:23:58.650Z,7.40
2023-03-26T23:26:50.657Z,7.40
2023-03-26T23:29:35.417Z,7.40
2023-03-26T23:32:25.165Z,7.30
2023-03-26T23:35:13.173Z,7.30
2023-03-26T23:38:02.115Z,7.10
2023-03-26T23:40:57.153Z,7.00
2023-03-26T23:43:54.231Z,7.00
2023-03-26T23:46:34.724Z,6.80
2023-03-26T23:49:21.861Z,6.90
2023-03-26T23:52:12.000Z,6.90
2023-03-26T23:55:00.244Z,6.90
2023-03-26T23:57:47.446Z,6.80
